Time;durP1;ratioP1;P1;durP2;ratioP2;P2;SDS_P1;SDS_P2;PMS_P1;PMS_P2;Temp;Humidity;BMP_temperature;BMP_pressure;BME280_temperature;BME280_humidity;BME280_pressure;Samples;Min_cycle;Max_cycle;Signal;HPM_P1;HPM_P2
2022/12/14 00:00:40;;;;;;;21.02;13.55;;;-5.10;99.90;;;;;;5076129;28;20276;-59
2022/12/14 00:03:07;;;;;;;23.25;14.20;;;-5.10;99.90;;;;;;5075196;28;20203;-58
2022/12/14 00:05:34;;;;;;;23.00;13.25;;;-5.10;99.90;;;;;;5075582;28;20243;-58
2022/12/14 00:08:01;;;;;;;18.55;12.55;;;-5.10;99.90;;;;;;5075426;28;20244;-58
2022/12/14 00:10:31;;;;;;;19.27;13.82;;;-5.00;99.90;;;;;;5076045;28;20197;-59
2022/12/14 00:12:58;;;;;;;21.52;13.05;;;-5.00;99.90;;;;;;5075232;28;20740;-59
2022/12/14 00:15:24;;;;;;;17.48;12.18;;;-5.00;99.90;;;;;;5074937;28;20727;-57
2022/12/14 00:17:51;;;;;;;17.30;11.40;;;-5.00;99.90;;;;;;5075299;28;20198;-58
2022/12/14 00:20:18;;;;;;;15.57;11.75;;;-5.00;99.90;;;;;;5075394;28;20197;-58
2022/12/14 00:22:45;;;;;;;19.50;11.50;;;-5.00;99.90;;;;;;5075237;28;20208;-57
2022/12/14 00:25:12;;;;;;;21.30;11.90;;;-5.00;99.90;;;;;;5074707;28;20238;-57
2022/12/14 00:27:44;;;;;;;19.27;12.45;;;-4.90;99.90;;;;;;5074980;28;20223;-57
2022/12/14 00:30:12;;;;;;;19.98;12.60;;;-4.90;99.90;;;;;;5075047;28;20186;-59
2022/12/14 00:32:39;;;;;;;18.02;11.38;;;-4.90;99.90;;;;;;5078712;28;20218;-57
2022/12/14 00:35:07;;;;;;;20.63;12.35;;;-4.90;99.90;;;;;;5081607;28;20221;-58
2022/12/14 00:37:34;;;;;;;18.27;11.50;;;-4.80;99.90;;;;;;5085188;28;20679;-60
2022/12/14 00:40:01;;;;;;;21.73;12.13;;;-4.90;99.90;;;;;;5081554;28;20211;-59
2022/12/14 00:42:27;;;;;;;18.27;12.27;;;-4.80;99.90;;;;;;5074802;28;20272;-58
2022/12/14 00:44:56;;;;;;;17.25;11.35;;;-4.80;99.90;;;;;;5074389;28;20224;-58
2022/12/14 00:47:22;;;;;;;21.25;12.95;;;-4.80;99.90;;;;;;5074162;28;20221;-59
2022/12/14 00:49:49;;;;;;;19.17;10.95;;;-4.80;99.90;;;;;;5073732;28;20664;-58
2022/12/14 00:52:16;;;;;;;21.92;11.35;;;-4.90;99.90;;;;;;5074414;28;20201;-58
2022/12/14 00:54:43;;;;;;;13.90;9.63;;;-4.90;99.90;;;;;;5075084;28;20224;-57
2022/12/14 00:57:10;;;;;;;17.33;10.75;;;-4.90;99.90;;;;;;5075665;28;20201;-58
2022/12/14 00:59:37;;;;;;;14.82;11.18;;;-4.90;99.90;;;;;;5075515;28;20205;-58
2022/12/14 01:02:06;;;;;;;17.98;11.25;;;-4.80;99.90;;;;;;5075309;28;20209;-60
2022/12/14 01:04:33;;;;;;;15.63;10.55;;;-4.80;99.90;;;;;;5074549;28;20220;-57
2022/12/14 01:07:00;;;;;;;18.05;11.80;;;-4.80;99.90;;;;;;5073981;28;20726;-59
2022/12/14 01:09:28;;;;;;;19.10;10.00;;;-4.80;99.90;;;;;;5074002;28;20211;-58
2022/12/14 01:11:55;;;;;;;18.80;11.32;;;-4.80;99.90;;;;;;5074237;28;20205;-57
2022/12/14 01:14:22;;;;;;;15.15;10.02;;;-4.80;99.90;;;;;;5074268;28;20200;-58
2022/12/14 01:16:49;;;;;;;12.45;8.75;;;-4.70;99.90;;;;;;5075379;28;20205;-58
2022/12/14 01:19:18;;;;;;;18.83;12.05;;;-4.80;99.90;;;;;;5074440;28;20212;-57
2022/12/14 01:21:44;;;;;;;14.32;10.57;;;-4.70;99.90;;;;;;5074345;28;20292;-57
2022/12/14 01:24:11;;;;;;;14.90;9.35;;;-4.70;99.90;;;;;;5074278;28;20200;-59
2022/12/14 01:26:39;;;;;;;16.90;10.85;;;-4.70;99.90;;;;;;5074633;28;20217;-58
2022/12/14 01:29:06;;;;;;;15.00;9.30;;;-4.70;99.90;;;;;;5074406;28;20291;-57
2022/12/14 01:31:35;;;;;;;15.95;10.18;;;-4.70;99.90;;;;;;5073931;28;20201;-58
2022/12/14 01:34:02;;;;;;;18.73;10.20;;;-4.70;99.90;;;;;;5074962;28;20228;-58
2022/12/14 01:36:32;;;;;;;16.20;10.73;;;-4.70;99.90;;;;;;5074566;28;20323;-58
2022/12/14 01:39:02;;;;;;;18.27;10.75;;;-4.60;99.90;;;;;;5074951;28;20210;-58
2022/12/14 01:41:31;;;;;;;20.73;11.07;;;-4.60;99.90;;;;;;5074106;28;20212;-57
2022/12/14 01:44:00;;;;;;;14.68;10.07;;;-4.60;99.90;;;;;;5073844;28;20204;-59
2022/12/14 01:46:31;;;;;;;13.55;9.30;;;-4.60;99.90;;;;;;5074264;28;20252;-58
2022/12/14 01:49:04;;;;;;;16.02;10.40;;;-4.60;99.90;;;;;;5074211;28;20191;-58
2022/12/14 01:51:35;;;;;;;18.38;11.50;;;-4.60;99.90;;;;;;5074573;28;20639;-57
2022/12/14 01:54:05;;;;;;;16.25;10.73;;;-4.60;99.90;;;;;;5074586;28;20196;-58
2022/12/14 01:56:35;;;;;;;17.38;10.18;;;-4.60;99.90;;;;;;5074183;28;20209;-58
2022/12/14 01:59:06;;;;;;;19.15;11.25;;;-4.60;99.90;;;;;;5074694;28;20231;-57
2022/12/14 02:01:34;;;;;;;17.23;10.68;;;-4.60;99.90;;;;;;5073947;28;20640;-58
2022/12/14 02:04:03;;;;;;;17.88;10.45;;;-4.70;99.90;;;;;;5073882;28;20208;-58
2022/12/14 02:06:35;;;;;;;20.20;10.75;;;-4.60;99.90;;;;;;5073846;28;20377;-58
2022/12/14 02:09:04;;;;;;;20.17;11.35;;;-4.70;99.90;;;;;;5074527;28;20195;-58
2022/12/14 02:11:39;;;;;;;14.18;10.25;;;-4.70;99.90;;;;;;5074426;28;20698;-60
2022/12/14 02:14:06;;;;;;;22.92;12.77;;;-4.70;99.90;;;;;;5075348;28;20195;-59
2022/12/14 02:16:32;;;;;;;17.98;10.52;;;-4.70;99.90;;;;;;5074282;28;20374;-59
2022/12/14 02:18:59;;;;;;;19.50;12.93;;;-4.80;99.90;;;;;;5073493;28;20543;-57
2022/12/14 02:21:43;;;;;;;16.08;10.75;;;-4.80;99.90;;;;;;5073979;28;20201;-58
2022/12/14 02:24:47;;;;;;;17.48;11.75;;;-4.80;99.90;;;;;;5074574;28;20271;-59
2022/12/14 02:27:33;;;;;;;20.25;11.65;;;-4.90;99.90;;;;;;5074914;28;20241;-58
2022/12/14 02:30:06;;;;;;;20.98;13.77;;;-4.90;99.90;;;;;;5075100;28;20193;-57
2022/12/14 02:32:54;;;;;;;18.38;9.93;;;-4.90;99.90;;;;;;5073536;28;20185;-57
2022/12/14 02:35:34;;;;;;;15.50;11.40;;;-4.90;99.90;;;;;;5073034;28;20716;-58
2022/12/14 02:38:10;;;;;;;20.90;12.88;;;-5.00;99.90;;;;;;5073483;28;20553;-57
2022/12/14 02:40:44;;;;;;;23.55;14.00;;;-5.00;99.90;;;;;;5073303;28;20585;-58
2022/12/14 02:43:19;;;;;;;19.77;13.00;;;-5.00;99.90;;;;;;5073176;28;20189;-57
2022/12/14 02:45:55;;;;;;;18.65;10.70;;;-5.00;99.90;;;;;;5073937;28;20227;-57
2022/12/14 02:48:25;;;;;;;20.67;12.20;;;-5.00;99.90;;;;;;5073439;28;20672;-57
2022/12/14 02:51:00;;;;;;;21.17;13.15;;;-5.00;99.90;;;;;;5073182;28;20311;-58
2022/12/14 02:53:34;;;;;;;17.38;11.27;;;-5.00;99.90;;;;;;5073544;28;20181;-58
2022/12/14 02:56:07;;;;;;;21.40;12.90;;;-5.10;99.90;;;;;;5073009;28;20310;-57
2022/12/14 02:58:37;;;;;;;17.17;12.05;;;-5.10;99.90;;;;;;5073115;28;20184;-58
2022/12/14 03:01:08;;;;;;;17.10;11.32;;;-5.10;99.90;;;;;;5073644;28;20201;-58
2022/12/14 03:03:34;;;;;;;17.80;11.10;;;-5.10;99.90;;;;;;5072680;28;20200;-58
2022/12/14 03:06:13;;;;;;;15.68;10.57;;;-5.20;99.90;;;;;;5072581;28;20247;-58
2022/12/14 03:08:43;;;;;;;16.52;11.77;;;-5.20;99.90;;;;;;5072734;28;20216;-57
2022/12/14 03:11:13;;;;;;;20.13;10.52;;;-5.20;99.90;;;;;;5072863;28;20204;-58
2022/12/14 03:13:46;;;;;;;19.08;10.70;;;-5.30;99.90;;;;;;5076395;28;20215;-56
2022/12/14 03:16:18;;;;;;;18.00;10.85;;;-5.30;99.90;;;;;;5076483;28;20234;-57
2022/12/14 03:18:49;;;;;;;15.50;9.88;;;-5.40;99.90;;;;;;5076588;28;20180;-57
2022/12/14 03:21:20;;;;;;;14.95;10.73;;;-5.40;99.90;;;;;;5076299;28;20196;-58
2022/12/14 03:23:49;;;;;;;20.73;9.93;;;-5.50;99.90;;;;;;5075845;28;20199;-57
2022/12/14 03:26:22;;;;;;;17.55;10.65;;;-5.60;99.90;;;;;;5075603;28;20242;-58
2022/12/14 03:28:52;;;;;;;19.13;10.95;;;-5.60;99.90;;;;;;5075866;28;20215;-58
2022/12/14 03:31:25;;;;;;;12.85;9.88;;;-5.70;99.90;;;;;;5076142;28;20309;-57
2022/12/14 03:33:55;;;;;;;17.27;10.20;;;-5.70;99.90;;;;;;5076337;28;20561;-57
2022/12/14 03:36:32;;;;;;;20.40;10.48;;;-5.80;99.90;;;;;;5075424;28;20733;-57
2022/12/14 03:39:01;;;;;;;21.10;10.30;;;-5.80;99.90;;;;;;5076062;28;20184;-57
2022/12/14 03:41:37;;;;;;;17.77;9.15;;;-5.80;99.90;;;;;;5075849;28;20231;-57
2022/12/14 03:44:18;;;;;;;19.60;11.38;;;-5.80;99.90;;;;;;5075565;28;20204;-57
2022/12/14 03:46:55;;;;;;;14.57;9.32;;;-5.90;99.90;;;;;;5076045;28;20188;-57
2022/12/14 03:49:32;;;;;;;16.17;8.90;;;-5.90;99.90;;;;;;5076136;28;20194;-56
2022/12/14 03:52:07;;;;;;;17.00;10.55;;;-6.00;99.90;;;;;;5075797;28;20192;-57
2022/12/14 03:54:45;;;;;;;13.68;8.30;;;-6.10;99.90;;;;;;5075350;28;20239;-57
2022/12/14 03:57:20;;;;;;;14.35;10.52;;;-6.10;99.90;;;;;;5075506;28;20189;-57
2022/12/14 03:59:55;;;;;;;22.73;10.25;;;-6.10;99.90;;;;;;5075640;28;20198;-57
2022/12/14 04:02:29;;;;;;;15.13;10.27;;;-6.20;99.90;;;;;;5078042;28;20580;-58
2022/12/14 04:05:02;;;;;;;14.23;9.43;;;-6.20;99.90;;;;;;5077417;28;20224;-59
2022/12/14 04:19:28;;;;;;;14.25;9.70;;;-6.30;99.90;;;;;;5056007;28;20246;-59
2022/12/14 04:21:58;;;;;;;12.90;7.53;;;-6.30;99.90;;;;;;5092077;28;20668;-58
2022/12/14 04:26:59;;;;;;;14.82;8.80;;;-6.40;99.90;;;;;;5075967;22;20285;-61
2022/12/14 04:32:19;;;;;;;14.57;8.68;;;-6.40;99.90;;;;;;5060706;28;20184;-62
2022/12/14 04:34:51;;;;;;;15.70;9.00;;;-6.40;99.90;;;;;;5060909;28;21685;-62
2022/12/14 04:37:22;;;;;;;22.00;9.65;;;-6.50;99.90;;;;;;5058577;28;20719;-62
2022/12/14 04:39:52;;;;;;;13.02;8.95;;;-6.50;99.90;;;;;;5058358;28;20193;-62
2022/12/14 04:42:23;;;;;;;15.07;9.55;;;-6.50;99.90;;;;;;5053097;28;20212;-62
2022/12/14 04:44:54;;;;;;;11.88;8.35;;;-6.50;99.90;;;;;;5051732;28;20309;-62
2022/12/14 04:47:28;;;;;;;20.88;10.77;;;-6.60;99.90;;;;;;5051795;28;20196;-62
2022/12/14 04:50:00;;;;;;;15.85;10.02;;;-6.60;99.90;;;;;;5050494;28;20210;-63
2022/12/14 04:52:33;;;;;;;13.82;8.40;;;-6.60;99.90;;;;;;5050051;28;20581;-63
2022/12/14 04:55:06;;;;;;;11.88;8.70;;;-6.60;99.90;;;;;;5050122;28;20458;-62
2022/12/14 04:57:41;;;;;;;17.27;8.85;;;-6.60;99.90;;;;;;5049741;28;20190;-62
2022/12/14 05:00:10;;;;;;;14.55;9.05;;;-6.60;99.90;;;;;;5050620;28;20182;-58
2022/12/14 05:02:51;;;;;;;12.75;8.27;;;-6.60;99.90;;;;;;5051519;28;20213;-61
2022/12/14 05:05:25;;;;;;;12.20;8.38;;;-6.60;99.90;;;;;;5052330;28;20228;-62
2022/12/14 05:08:00;;;;;;;11.85;8.77;;;-6.60;99.90;;;;;;5050528;28;20204;-61
2022/12/14 05:10:36;;;;;;;11.32;8.98;;;-6.60;99.90;;;;;;5051519;28;20210;-62
2022/12/14 05:13:08;;;;;;;16.02;10.48;;;-6.50;99.90;;;;;;5051075;28;20188;-62
2022/12/14 05:15:41;;;;;;;14.18;9.35;;;-6.50;99.90;;;;;;5053469;28;20229;-62
2022/12/14 05:18:09;;;;;;;16.85;9.10;;;-6.50;99.90;;;;;;5050463;28;20204;-62
2022/12/14 05:20:36;;;;;;;12.50;8.10;;;-6.50;99.90;;;;;;5044765;28;20201;-62
2022/12/14 05:23:03;;;;;;;12.07;9.57;;;-6.60;99.90;;;;;;5035864;28;20205;-62
2022/12/14 05:25:29;;;;;;;14.68;9.18;;;-6.50;99.90;;;;;;5035363;28;20265;-61
2022/12/14 05:27:56;;;;;;;9.10;7.68;;;-6.60;99.90;;;;;;5035752;28;20231;-63
2022/12/14 05:30:24;;;;;;;10.95;8.88;;;-6.50;99.90;;;;;;5035573;28;20222;-62
2022/12/14 05:32:53;;;;;;;13.68;9.10;;;-6.60;99.90;;;;;;5036084;28;20206;-62
2022/12/14 05:35:20;;;;;;;13.20;10.13;;;-6.50;99.90;;;;;;5035312;28;20828;-61
2022/12/14 05:37:47;;;;;;;12.38;8.02;;;-6.50;99.90;;;;;;5038795;28;20257;-62
2022/12/14 05:40:14;;;;;;;14.70;8.48;;;-6.50;99.90;;;;;;5039823;28;20208;-61
2022/12/14 05:42:40;;;;;;;15.25;8.68;;;-6.60;99.90;;;;;;5039438;28;20209;-62
2022/12/14 05:45:09;;;;;;;17.33;9.15;;;-6.50;99.90;;;;;;5036990;28;20234;-62
2022/12/14 05:47:38;;;;;;;10.00;8.30;;;-6.60;99.90;;;;;;5037016;28;20737;-62
2022/12/14 05:50:05;;;;;;;14.32;9.27;;;-6.60;99.90;;;;;;5047642;28;20230;-61
2022/12/14 05:52:32;;;;;;;13.75;8.35;;;-6.50;99.90;;;;;;5042383;28;20264;-62
2022/12/14 05:54:59;;;;;;;13.13;8.43;;;-6.60;99.90;;;;;;5045116;28;20233;-60
2022/12/14 05:57:26;;;;;;;11.25;8.65;;;-6.50;99.90;;;;;;5044561;28;20209;-62
2022/12/14 05:59:52;;;;;;;12.70;8.88;;;-6.60;99.90;;;;;;5047181;28;20203;-62
2022/12/14 06:02:19;;;;;;;15.40;9.00;;;-6.60;99.90;;;;;;5045663;28;20237;-61
2022/12/14 06:04:47;;;;;;;12.70;8.93;;;-6.60;99.90;;;;;;5045887;28;20207;-62
2022/12/14 06:07:14;;;;;;;17.25;9.48;;;-6.70;99.90;;;;;;5042078;28;20213;-63
2022/12/14 06:09:41;;;;;;;18.30;10.10;;;-6.70;99.90;;;;;;5035497;28;20226;-62
2022/12/14 06:12:08;;;;;;;16.33;8.63;;;-6.70;99.90;;;;;;5035187;28;20204;-62
2022/12/14 06:14:34;;;;;;;19.83;10.10;;;-6.80;99.90;;;;;;5035363;28;20204;-59
2022/12/14 06:17:01;;;;;;;14.50;9.43;;;-6.80;99.90;;;;;;5035468;28;20218;-63
2022/12/14 06:19:28;;;;;;;14.50;9.70;;;-6.80;99.90;;;;;;5035080;28;20674;-62
2022/12/14 06:21:56;;;;;;;19.30;11.27;;;-6.90;99.90;;;;;;5035715;28;20229;-61
2022/12/14 06:24:23;;;;;;;13.40;9.93;;;-6.90;99.90;;;;;;5037425;28;20213;-62
2022/12/14 06:26:49;;;;;;;13.60;8.10;;;-6.90;99.90;;;;;;5035694;28;20668;-61
2022/12/14 06:29:18;;;;;;;11.57;8.43;;;-6.90;99.90;;;;;;5035410;28;20323;-63
2022/12/14 06:31:45;;;;;;;12.13;9.02;;;-6.90;99.90;;;;;;5038368;28;20212;-62
2022/12/14 06:34:13;;;;;;;11.93;8.95;;;-6.90;99.90;;;;;;5035477;28;20206;-62
2022/12/14 06:36:41;;;;;;;9.68;7.63;;;-6.90;99.90;;;;;;5035943;28;20231;-62
2022/12/14 06:39:12;;;;;;;14.90;9.23;;;-6.90;99.90;;;;;;5036314;28;20205;-62
2022/12/14 06:41:40;;;;;;;16.08;9.65;;;-6.90;99.90;;;;;;5036771;28;20215;-61
2022/12/14 06:44:10;;;;;;;12.05;8.45;;;-6.90;99.90;;;;;;5037266;28;20210;-61
2022/12/14 06:46:39;;;;;;;12.00;7.32;;;-6.90;99.90;;;;;;5037172;28;20233;-62
2022/12/14 06:49:06;;;;;;;15.18;8.38;;;-6.90;99.90;;;;;;5036892;28;20206;-61
2022/12/14 06:51:39;;;;;;;18.73;11.05;;;-6.90;99.90;;;;;;5037355;28;20215;-62
2022/12/14 06:54:06;;;;;;;11.43;8.80;;;-6.90;99.90;;;;;;5037356;28;20285;-62
2022/12/14 06:56:37;;;;;;;21.92;10.57;;;-6.90;99.90;;;;;;5035937;28;20692;-62
2022/12/14 06:59:04;;;;;;;12.70;8.48;;;-6.90;99.90;;;;;;5041238;28;20209;-62
2022/12/14 07:01:31;;;;;;;16.38;8.25;;;-6.90;99.90;;;;;;5029192;28;20569;-62
2022/12/14 07:03:58;;;;;;;13.25;8.85;;;-6.90;99.90;;;;;;5039114;28;20199;-64
2022/12/14 07:06:26;;;;;;;20.35;9.35;;;-6.90;99.90;;;;;;5035786;28;20252;-64
2022/12/14 07:08:54;;;;;;;16.40;9.75;;;-6.90;99.90;;;;;;5038898;28;20196;-63
2022/12/14 07:11:21;;;;;;;13.32;9.35;;;-6.90;99.90;;;;;;5032457;28;20239;-62
2022/12/14 07:13:49;;;;;;;16.52;9.43;;;-6.90;99.90;;;;;;5038108;28;20226;-63
2022/12/14 07:16:18;;;;;;;19.00;9.38;;;-6.90;99.90;;;;;;5019498;28;20251;-63
2022/12/14 07:18:45;;;;;;;12.32;7.90;;;-6.90;99.90;;;;;;5027714;28;20216;-64
2022/12/14 07:21:14;;;;;;;19.05;10.88;;;-6.90;99.90;;;;;;5038082;28;20212;-61
2022/12/14 07:23:42;;;;;;;18.85;9.15;;;-6.90;99.90;;;;;;5035593;28;20202;-63
2022/12/14 07:26:12;;;;;;;13.07;8.40;;;-6.90;99.90;;;;;;5037287;28;20232;-63
2022/12/14 07:28:40;;;;;;;15.77;8.45;;;-6.90;99.90;;;;;;5035694;28;20206;-62
2022/12/14 07:31:12;;;;;;;13.95;8.52;;;-6.90;99.90;;;;;;5037278;28;20581;-62
2022/12/14 07:33:39;;;;;;;12.70;10.02;;;-6.90;99.90;;;;;;5031718;28;20198;-62
2022/12/14 07:36:08;;;;;;;14.35;8.95;;;-6.90;99.90;;;;;;5033472;28;20227;-62
2022/12/14 07:38:36;;;;;;;15.77;8.75;;;-6.90;99.90;;;;;;5033587;28;20205;-63
2022/12/14 07:41:05;;;;;;;13.10;8.85;;;-6.90;99.90;;;;;;5035793;28;20212;-63
2022/12/14 07:43:31;;;;;;;12.15;8.02;;;-6.90;99.90;;;;;;5032130;28;20376;-65
2022/12/14 07:46:03;;;;;;;17.08;8.00;;;-6.90;99.90;;;;;;5035122;28;20308;-63
2022/12/14 07:48:31;;;;;;;14.35;8.13;;;-6.80;99.90;;;;;;5014633;28;20690;-63
2022/12/14 07:51:03;;;;;;;10.45;7.82;;;-6.80;99.90;;;;;;5018055;28;20225;-63
2022/12/14 07:53:29;;;;;;;12.70;7.97;;;-6.80;99.90;;;;;;5034409;28;20216;-64
2022/12/14 07:56:00;;;;;;;11.27;8.55;;;-6.80;99.90;;;;;;5036634;28;20224;-64
2022/12/14 07:58:26;;;;;;;10.98;8.23;;;-6.80;99.90;;;;;;5037619;28;20560;-63
2022/12/14 08:00:53;;;;;;;9.02;6.90;;;-6.80;99.90;;;;;;5034013;28;20211;-64
2022/12/14 08:03:20;;;;;;;12.07;8.10;;;-6.80;99.90;;;;;;5030448;28;20209;-62
2022/12/14 08:05:48;;;;;;;15.50;9.07;;;-6.80;99.90;;;;;;5052562;28;20239;-61
2022/12/14 08:08:15;;;;;;;12.05;8.07;;;-6.70;99.90;;;;;;5053893;28;20213;-61
2022/12/14 08:10:42;;;;;;;14.25;8.65;;;-6.70;99.90;;;;;;5053949;28;20232;-62
2022/12/14 08:13:09;;;;;;;14.57;8.77;;;-6.70;99.90;;;;;;5053617;28;20342;-62
2022/12/14 08:15:37;;;;;;;12.20;8.43;;;-6.70;99.90;;;;;;5053454;28;20235;-61
2022/12/14 08:18:04;;;;;;;12.95;7.50;;;-6.60;99.90;;;;;;5054458;28;20274;-62
2022/12/14 08:20:31;;;;;;;13.27;7.68;;;-6.60;99.90;;;;;;5053605;28;20223;-62
2022/12/14 08:22:59;;;;;;;13.50;8.60;;;-6.60;99.90;;;;;;5051163;28;20208;-62
2022/12/14 08:25:26;;;;;;;12.48;8.75;;;-6.50;99.90;;;;;;5053893;28;20241;-60
2022/12/14 08:27:52;;;;;;;13.27;8.27;;;-6.50;99.90;;;;;;5053636;28;20201;-62
2022/12/14 08:30:19;;;;;;;17.17;9.55;;;-6.50;99.90;;;;;;5043155;28;20559;-60
2022/12/14 08:32:46;;;;;;;15.95;9.77;;;-6.50;99.90;;;;;;5033646;28;20678;-61
2022/12/14 08:35:13;;;;;;;11.93;7.93;;;-6.50;99.90;;;;;;5033151;28;20586;-60
2022/12/14 08:37:40;;;;;;;13.38;9.32;;;-6.40;99.90;;;;;;5033387;28;20666;-61
2022/12/14 08:40:09;;;;;;;10.40;8.75;;;-6.30;99.90;;;;;;5035420;28;20520;-60
2022/12/14 08:42:36;;;;;;;15.20;8.90;;;-6.30;99.90;;;;;;5033993;28;20205;-62
2022/12/14 08:45:03;;;;;;;17.63;9.18;;;-6.20;99.90;;;;;;5032910;28;20233;-62
2022/12/14 08:47:29;;;;;;;18.75;8.63;;;-6.20;99.90;;;;;;5032911;28;20224;-60
2022/12/14 08:49:56;;;;;;;15.30;8.65;;;-6.10;99.90;;;;;;5032698;28;20323;-61
2022/12/14 08:52:23;;;;;;;13.82;8.13;;;-6.10;99.90;;;;;;5032645;28;20235;-61
2022/12/14 08:54:50;;;;;;;13.65;8.85;;;-6.00;99.90;;;;;;5032346;28;20234;-61
2022/12/14 08:57:18;;;;;;;18.17;9.60;;;-5.90;99.90;;;;;;5036163;28;20292;-62
2022/12/14 08:59:45;;;;;;;13.55;9.52;;;-5.90;99.90;;;;;;5037394;28;20650;-60
2022/12/14 09:02:11;;;;;;;12.77;8.45;;;-5.90;99.90;;;;;;5037399;28;20210;-62
2022/12/14 09:04:38;;;;;;;13.23;9.30;;;-5.90;99.90;;;;;;5036626;28;20550;-61
2022/12/14 09:07:05;;;;;;;16.85;9.40;;;-5.80;99.90;;;;;;5039752;28;20198;-61
2022/12/14 09:09:34;;;;;;;15.30;9.43;;;-5.80;99.90;;;;;;5047574;28;20214;-62
2022/12/14 09:12:05;;;;;;;15.30;8.63;;;-5.80;99.90;;;;;;5037560;28;20242;-62
2022/12/14 09:14:36;;;;;;;23.33;8.82;;;-5.80;99.90;;;;;;5036630;28;20187;-62
2022/12/14 09:17:04;;;;;;;12.93;7.75;;;-5.90;99.90;;;;;;5038418;28;20197;-62
2022/12/14 09:19:31;;;;;;;9.73;6.85;;;-5.90;99.90;;;;;;5036490;28;20320;-60
2022/12/14 09:21:57;;;;;;;10.18;7.15;;;-5.90;99.90;;;;;;5036246;28;20198;-62
2022/12/14 09:24:24;;;;;;;12.80;9.18;;;-5.90;99.90;;;;;;5036473;28;20202;-61
2022/12/14 09:26:51;;;;;;;9.65;7.20;;;-5.90;99.90;;;;;;5035867;28;20233;-62
2022/12/14 09:29:19;;;;;;;11.82;8.73;;;-5.90;99.90;;;;;;5035903;28;20206;-62
2022/12/14 09:31:47;;;;;;;14.05;8.02;;;-5.90;99.90;;;;;;5035650;28;20634;-60
2022/12/14 09:34:13;;;;;;;15.93;10.63;;;-5.90;99.90;;;;;;5036188;28;20206;-62
2022/12/14 09:36:41;;;;;;;12.65;8.18;;;-5.90;99.90;;;;;;5035926;28;20218;-61
2022/12/14 09:39:14;;;;;;;16.08;9.00;;;-5.90;99.90;;;;;;5037789;28;20248;-61
2022/12/14 09:41:59;;;;;;;12.90;8.00;;;-5.90;99.90;;;;;;5035758;28;20336;-61
2022/12/14 09:44:38;;;;;;;11.90;8.00;;;-5.90;99.90;;;;;;5036117;28;20190;-60
2022/12/14 09:47:21;;;;;;;15.57;7.57;;;-6.00;99.90;;;;;;5036157;28;20200;-60
2022/12/14 09:49:51;;;;;;;12.48;7.57;;;-6.00;99.90;;;;;;5035765;28;20206;-59
2022/12/14 09:52:22;;;;;;;14.43;9.05;;;-6.00;99.90;;;;;;5035357;28;20558;-61
2022/12/14 09:54:51;;;;;;;11.40;8.32;;;-5.90;99.90;;;;;;5035243;28;20226;-62
2022/12/14 09:57:25;;;;;;;12.65;8.25;;;-5.90;99.90;;;;;;5034846;28;20676;-62
2022/12/14 09:59:53;;;;;;;18.00;8.82;;;-5.90;99.90;;;;;;5035746;28;20195;-59
2022/12/14 10:02:40;;;;;;;12.73;8.98;;;-5.90;99.90;;;;;;5035024;28;20230;-60
2022/12/14 10:05:23;;;;;;;13.93;9.05;;;-5.80;99.90;;;;;;5035262;28;20229;-60
2022/12/14 10:08:00;;;;;;;12.00;8.30;;;-5.80;99.90;;;;;;5036226;28;20219;-61
2022/12/14 10:10:32;;;;;;;10.57;7.30;;;-5.80;99.90;;;;;;5034927;28;20681;-61
2022/12/14 10:13:05;;;;;;;12.15;8.35;;;-5.80;99.90;;;;;;5035564;28;20190;-60
2022/12/14 10:15:40;;;;;;;15.77;9.02;;;-5.70;99.90;;;;;;5035256;28;20223;-60
2022/12/14 10:18:34;;;;;;;17.90;8.70;;;-5.70;99.90;;;;;;5035508;28;20187;-60
2022/12/14 10:21:05;;;;;;;13.60;9.60;;;-5.70;99.90;;;;;;5034856;28;20269;-61
2022/12/14 10:23:49;;;;;;;14.63;9.02;;;-5.60;99.90;;;;;;5034754;28;20293;-61
2022/12/14 10:26:20;;;;;;;11.55;8.77;;;-5.50;99.90;;;;;;5033621;28;20713;-60
2022/12/14 10:28:53;;;;;;;11.82;8.75;;;-5.40;99.90;;;;;;5035074;28;20572;-59
2022/12/14 10:31:32;;;;;;;10.93;7.68;;;-5.30;99.90;;;;;;5034506;28;20700;-61
2022/12/14 10:34:10;;;;;;;15.55;8.63;;;-5.20;99.90;;;;;;5034960;28;20187;-59
2022/12/14 10:36:46;;;;;;;12.68;8.40;;;-5.10;99.90;;;;;;5035116;28;20222;-60
2022/12/14 10:39:22;;;;;;;10.18;8.05;;;-5.00;99.90;;;;;;5034527;28;20194;-59
2022/12/14 10:41:56;;;;;;;10.18;8.90;;;-4.80;99.90;;;;;;5035500;28;20221;-62
2022/12/14 10:44:32;;;;;;;8.23;7.40;;;-4.70;99.90;;;;;;5034645;28;20208;-61
2022/12/14 10:47:05;;;;;;;13.57;8.82;;;-4.60;99.90;;;;;;5034410;28;20626;-62
2022/12/14 10:49:40;;;;;;;15.65;8.45;;;-4.60;99.90;;;;;;5034520;28;20191;-62
2022/12/14 10:52:13;;;;;;;14.45;9.32;;;-4.40;99.90;;;;;;5034166;28;20302;-61
2022/12/14 10:54:44;;;;;;;15.68;9.90;;;-4.40;99.90;;;;;;5034065;28;20635;-60
2022/12/14 10:57:18;;;;;;;15.23;8.35;;;-4.30;99.90;;;;;;5034393;28;20603;-61
2022/12/14 10:59:45;;;;;;;14.77;9.05;;;-4.20;99.90;;;;;;5034209;28;20190;-61
2022/12/14 11:02:15;;;;;;;13.60;9.30;;;-4.10;99.90;;;;;;5034040;28;20198;-62
2022/12/14 11:04:49;;;;;;;12.98;8.80;;;-4.00;99.90;;;;;;5033678;28;20197;-61
2022/12/14 11:07:19;;;;;;;13.80;9.25;;;-3.90;99.90;;;;;;5033849;28;20186;-62
2022/12/14 11:09:46;;;;;;;15.00;9.07;;;-3.80;99.90;;;;;;5033832;28;20209;-62
2022/12/14 11:12:22;;;;;;;18.23;11.00;;;-3.70;99.90;;;;;;5034084;28;20222;-62
2022/12/14 11:14:55;;;;;;;15.23;9.00;;;-3.60;99.90;;;;;;5034087;28;20232;-61
2022/12/14 11:17:34;;;;;;;15.00;8.60;;;-3.50;99.90;;;;;;5037271;28;20686;-60
2022/12/14 11:20:16;;;;;;;12.90;8.80;;;-3.40;99.90;;;;;;5033385;28;20747;-62
2022/12/14 11:22:44;;;;;;;13.20;8.38;;;-3.40;99.90;;;;;;5033590;28;20665;-62
2022/12/14 11:25:28;;;;;;;14.18;8.88;;;-3.30;99.90;;;;;;5033118;28;20266;-61
2022/12/14 11:27:56;;;;;;;15.85;8.50;;;-3.20;99.90;;;;;;5033792;28;20197;-62
2022/12/14 11:30:23;;;;;;;14.43;7.72;;;-3.20;99.90;;;;;;5033625;28;20297;-62
2022/12/14 11:32:50;;;;;;;13.82;8.32;;;-3.10;99.90;;;;;;5033347;28;20253;-62
2022/12/14 11:35:21;;;;;;;13.25;9.18;;;-3.00;99.90;;;;;;5033511;28;20222;-62
2022/12/14 11:37:49;;;;;;;12.45;8.35;;;-2.90;99.90;;;;;;5033430;28;20193;-62
2022/12/14 11:40:21;;;;;;;12.38;8.63;;;-2.80;99.90;;;;;;5033921;28;20207;-63
2022/12/14 11:42:49;;;;;;;15.10;9.35;;;-2.80;99.90;;;;;;5036608;28;20198;-62
2022/12/14 11:45:29;;;;;;;15.05;9.10;;;-2.70;99.90;;;;;;5039376;28;20230;-61
2022/12/14 11:48:27;;;;;;;12.05;8.07;;;-2.60;99.90;;;;;;5040275;28;20194;-63
2022/12/14 11:51:08;;;;;;;9.50;7.63;;;-2.50;99.90;;;;;;4976729;28;20216;-62
2022/12/14 11:53:34;;;;;;;11.15;7.80;;;-2.50;99.90;;;;;;5030633;28;20298;-62
2022/12/14 11:56:04;;;;;;;13.63;7.80;;;-2.40;99.90;;;;;;5035762;28;20219;-62
2022/12/14 11:58:33;;;;;;;10.48;8.43;;;-2.30;99.90;;;;;;5033109;28;20202;-62
2022/12/14 12:01:03;;;;;;;9.88;8.00;;;-2.30;99.90;;;;;;5036394;28;20198;-63
2022/12/14 12:03:35;;;;;;;11.63;9.02;;;-2.20;99.90;;;;;;5033815;28;20642;-62
2022/12/14 12:06:06;;;;;;;13.23;8.45;;;-2.20;99.90;;;;;;5033451;28;20314;-61
2022/12/14 12:08:36;;;;;;;11.70;7.43;;;-2.20;99.90;;;;;;5034721;28;20230;-62
2022/12/14 12:11:13;;;;;;;12.07;7.32;;;-2.20;99.90;;;;;;5034564;28;20582;-62
2022/12/14 12:13:42;;;;;;;12.70;7.75;;;-2.10;99.90;;;;;;5034302;28;20190;-63
2022/12/14 12:16:14;;;;;;;14.30;8.07;;;-2.10;99.90;;;;;;5037383;28;20311;-63
2022/12/14 12:18:46;;;;;;;10.35;7.82;;;-2.10;99.90;;;;;;5034571;28;20188;-62
2022/12/14 12:21:18;;;;;;;13.70;7.68;;;-2.00;99.90;;;;;;5034196;28;20292;-62
2022/12/14 12:23:51;;;;;;;8.15;6.65;;;-2.00;99.90;;;;;;5033078;28;20190;-62
2022/12/14 12:26:25;;;;;;;8.30;6.45;;;-2.00;99.90;;;;;;5032647;28;20236;-63
2022/12/14 12:28:58;;;;;;;14.23;8.43;;;-2.00;99.90;;;;;;5033137;28;20197;-61
2022/12/14 12:31:34;;;;;;;8.88;6.35;;;-1.90;99.90;;;;;;5035276;28;20234;-64
2022/12/14 12:34:04;;;;;;;12.68;5.47;;;-1.80;99.90;;;;;;5040482;28;20283;-62
2022/12/14 12:36:33;;;;;;;15.38;7.18;;;-1.80;99.90;;;;;;5037063;28;20707;-62
2022/12/14 12:39:04;;;;;;;9.10;6.45;;;-1.80;99.90;;;;;;5036834;28;20200;-62
2022/12/14 12:41:41;;;;;;;11.93;7.25;;;-1.80;99.90;;;;;;5036871;28;20180;-62
2022/12/14 12:44:36;;;;;;;12.50;8.60;;;-1.80;99.60;;;;;;5037186;28;20204;-61
2022/12/14 12:47:10;;;;;;;7.72;6.65;;;-1.80;99.20;;;;;;5036466;28;20191;-62
2022/12/14 12:49:37;;;;;;;12.43;6.65;;;-1.80;99.00;;;;;;5038382;28;20274;-61
2022/12/14 12:52:15;;;;;;;11.52;6.25;;;-1.90;98.70;;;;;;5037254;28;20236;-62
2022/12/14 12:54:51;;;;;;;7.20;6.20;;;-1.90;98.60;;;;;;5037035;28;20592;-62
2022/12/14 12:57:19;;;;;;;9.43;7.25;;;-1.90;98.40;;;;;;5037592;28;20187;-62
2022/12/14 12:59:49;;;;;;;10.73;6.60;;;-1.90;98.50;;;;;;5039500;28;20213;-63
2022/12/14 13:02:28;;;;;;;9.30;6.90;;;-1.90;98.60;;;;;;5036873;28;20208;-63
2022/12/14 13:04:56;;;;;;;14.60;7.82;;;-1.80;98.50;;;;;;5039985;28;20223;-63
2022/12/14 13:07:35;;;;;;;10.57;6.70;;;-1.70;98.40;;;;;;5037149;28;20252;-62